x

Cape Suckling - 35 Nm Se Of Kayak Is, Ak (46082) Wave Buoy

7:50am - Sun 2nd Aug 2015 All times are AKDT. -8 hours from GMT.

  • Sig Wave height 2.6ft
  • Swell Direction
  • Peak Period 15s
  • Average Period 5s
  • Wind
    13mph, 16mph gusts
  • Sea Temp 59°f
  • Air Temp 58°f
  • Sea Pressure 1018.6mb
  • Cape Suckling - 35 Nm Se Of Kayak Is, Ak
  • Cape Suckling - 35 Nm Se Of Kayak Is, Ak

More Historic Weather Station data

Upgrade to MSW Pro to gain access to the past 30 days of data for over 8000 Wavebouys and Weather Stations around the globe.

Join Pro

Comparision Forecast

View Surf forecast
   
Sun 08/02 7:50am 2.5ft 15s 5s 13 16 mph 1018.6mb 59f 58f
6:50am 3ft 15s 6s 13 16 mph 1018.5mb 59f 58f
5:50am 3ft 15s 6s 13 16 mph 1018.5mb 60f 58f
4:50am 2.5ft 15s 7s 11 13 mph 1018.9mb 60f 58f
3:50am 2.5ft 14s 7s 7 9 mph 1019mb 60f 59f
2:50am 2.5ft 14s 7s 7 9 mph 1019.1mb 61f 58f
1:50am 3ft 14s 8s 7
mph
1019.2mb 61f 58f
12:50am 2.5ft 15s 8s 7
mph
1019.1mb 61f 58f
Sat 08/01 11:50pm 3ft 15s 8s 4
mph
1019.3mb 61f 59f
10:50pm 2.5ft 14s 7s 7
mph
1019.4mb 62f 59f
9:50pm 2.5ft 15s 7s 4 7 mph 1019.5mb 62f 59f
8:50pm 3ft 14s 7s 4 9 mph 1019.6mb 62f 62f
7:50pm 3ft 14s 7s 2
mph
1019.7mb 63f 63f
6:50pm 3.5ft 15s 6s  -  2 mph 1019.7mb 63f 62f
5:50pm 3ft 15s 6s 2
mph
1019.8mb 63f 61f
4:50pm 3ft 15s 7s 2
mph
1019.8mb 64f 61f
3:50pm 3ft 15s 7s 4 7 mph 1020mb 62f 60f
2:50pm 3.5ft 15s 7s 4 7 mph 1020.1mb 63f 61f
1:50pm 3ft 15s 7s 2
mph
1020.1mb 62f 61f
12:50pm 3ft 14s 7s 2
mph
1020mb 62f 61f
11:50am 3.5ft 14s 8s  -  2 mph 1019.9mb 61f 61f
10:50am 3.5ft 15s 8s  -  2 mph 1019.9mb 60f 60f
9:50am 3ft 14s 8s 2 4 mph 1019.7mb 60f 59f
8:50am 3ft 15s 7s 4
mph
1019.4mb 59f 60f
7:50am 3ft 15s 7s 4
mph
1019.2mb 59f 59f
6:50am 3.5ft 15s 7s 4
mph
1019mb 59f 59f
5:50am 3.5ft 15s 7s 7
mph
1019mb 59f 58f
4:50am 3.5ft 15s 7s 4 7 mph 1018.7mb 59f 59f
3:50am 3.5ft 14s 7s 4
mph
1018.6mb 60f 58f
2:50am 3ft 15s 7s 4
mph
1018.4mb 60f 59f
1:50am 3ft 15s 8s 2
mph
1018.2mb 60f 59f
12:50am 3ft 15s 8s  -  2 mph 1018mb 60f 59f
Fri 07/31 11:50pm 2.5ft 14s 8s  -  mph 1017.9mb 60f 58f
10:50pm 2.5ft 15s 8s  -  2 mph 1017.9mb 60f 58f
9:50pm 3ft 15s 9s  -  mph 1017.6mb 60f 59f
8:50pm 2.5ft 16s 9s 2
mph
1017.2mb 60f 61f
7:50pm 2.5ft 15s 9s 4
mph
1017mb 60f 60f
6:50pm 3ft 15s 9s 4 7 mph 1017.1mb 60f 60f
5:50pm 3ft 15s 10s 7 9 mph 1017.2mb 60f 60f
4:50pm 3ft 15s 9s 7
mph
1017.2mb 60f 60f
3:50pm 2.5ft 15s 8s 7
mph
1017.1mb 60f 59f
2:50pm 3ft 15s 9s 7 9 mph 1016.9mb 60f 59f
1:50pm 2.5ft 15s 7s 7 9 mph 1016.7mb 59f 59f
12:50pm 2.5ft 15s 8s 7 9 mph 1016.4mb 59f 59f
11:50am 2.5ft 15s 8s 7 9 mph 1016.4mb 59f 58f
10:50am 3ft 15s 9s 9 11 mph 1016.2mb 59f 58f
9:50am 3.5ft 15s 9s 9 11 mph 1016mb 58f 58f
8:50am 2.5ft 15s 8s 9 11 mph 1016.1mb 58f 58f
7:50am 2.5ft 15s 7s 11
mph
1015.9mb 58f 58f
6:50am 2.5ft 16s 7s 13 16 mph 1015.8mb 58f 57f
5:50am 2.5ft 16s 7s 11
mph
1015.9mb 58f 57f
4:50am 2.5ft 16s 7s 11 13 mph 1016mb 58f 57f
3:50am 3ft 15s 8s 11
mph
1016.1mb 58f 57f
2:50am 3ft 15s 8s 9 11 mph 1016.2mb 58f 57f
1:50am 3ft 15s 8s 9 11 mph 1016.5mb 58f 57f
12:50am 3ft 16s 8s 7 9 mph 1016.6mb 58f 57f
Thu 07/30 11:50pm 3.5ft 16s 8s 7
mph
1016.7mb 58f 57f
10:50pm 3ft 16s 7s 7 9 mph 1017.2mb 59f 56f
9:50pm 3.5ft 16s 7s 4 7 mph 1017.2mb 59f 56f
8:50pm 2.5ft 16s 6s 4
mph
1017.2mb 59f 57f
7:50pm 3ft 16s 6s 4
mph
1017.5mb 59f 57f
6:50pm 3ft 16s 7s 4
mph
1017.9mb 59f 57f
5:50pm 3.5ft 16s 7s 7
mph
1018.3mb 59f 57f
4:50pm 3.5ft 16s 6s 4 7 mph 1018.6mb 58f 57f
3:50pm 3.5ft 16s 6s 7 9 mph 1019mb 58f 57f
2:50pm 3.5ft 16s 7s 9 11 mph 1019.2mb 58f 57f
1:50pm 3.5ft 16s 6s 11 13 mph 1019.2mb 58f 57f
12:50pm 3.5ft 16s 6s 11 13 mph 1019.1mb 58f 58f
11:50am 4ft 16s 6s 11 13 mph 1019.1mb 58f 58f
10:50am 3.5ft 16s 6s 11 13 mph 1019mb 58f 58f
9:50am 4ft 16s 6s 11
mph
1019.1mb 58f 57f
8:50am 4ft 16s 6s 9 11 mph 1019.1mb 58f 57f
7:50am 4ft 16s 6s 11 13 mph 1018.9mb 58f 57f
6:50am 4ft 16s 6s 11 13 mph 1018.8mb 58f 57f
5:50am 3.5ft 16s 5s 11 13 mph 1018.7mb 58f 56f
4:50am 3.5ft 16s 6s 11 13 mph 1018.9mb 58f 56f
3:50am 3.5ft 16s 6s 13
mph
1018.7mb 58f 56f
2:50am 3.5ft 17s 6s 11 13 mph 1018.8mb 58f 57f
1:50am 4ft 16s 6s 13 16 mph 1018.6mb 58f 57f
12:50am 4ft 17s 6s 13 16 mph 1018.4mb 58f 57f
Wed 07/29 11:50pm 4ft 17s 6s 11 13 mph 1018.3mb 58f 58f
10:50pm 3.5ft 17s 6s 13 16 mph 1018.1mb 59f 58f
9:50pm 4ft 17s 6s 11 13 mph 1018mb 59f 58f
8:50pm 4.5ft 16s 7s 11 13 mph 1017.8mb 59f 58f
7:50pm 4ft 17s 6s 11 13 mph 1017.6mb 59f 58f
6:50pm 4ft 17s 6s 11 13 mph 1017.6mb 59f 58f
5:50pm 4ft 17s 6s 11 13 mph 1017.7mb 59f 57f
4:50pm 4ft 17s 6s 11 13 mph 1017.6mb 59f 57f